Airfield :
LOGIN :

Register | Disclaimer

   EN    FR    IT 

 










Legend :    VFR   Marginal VFR   IFR   Intensive IFR   Very Intensive IFR
Visi :
Ceiling :
>= 8 km
>= 3000ft
5 to 8 km
1000 to 3000 ft
1500m to 5 km
500 to 1000 ft
800 to 1500m
200 to 500 ft
< 800m
< 200 ft
Symbols :   Thunderstorms  Fog  Heavy snow  Heavy precipitations  Wind > 20 kt
SIGMETs :     Misc.  Thunderstorms  Icing  Turbulence  Mountain Waves  Volcanic Ashes






- Airport Elevation : 39 ft
- IATA code : ANR


EBAW - Anvers / Antwerpen Deurne

CURRENT METAR :
  • 300320Z AUTO 15004KT 8000 // NCD 12/10 Q1015

EXPIRED METARs :
  • 300250Z AUTO 17004KT CAVOK 14/12 Q1015
  • 300220Z AUTO 21002KT CAVOK 15/12 Q1015
  • 300150Z AUTO 19003KT CAVOK 15/12 Q1016
  • 300120Z AUTO 21003KT CAVOK 15/12 Q1016
  • 300050Z AUTO 19004KT CAVOK 15/13 Q1016

TAF TAF EBAW
Valid from the 30 at 03:00 until the 30 at 12:00 UTC


300220Z 3003/3012 18005KT 9999 FEW025
PROB30
TEMPO 3003/3009 4000 BR BKN007
PROB30
TEMPO 3007/3009 4000 SHRA BKN014TCU



MET'MAP, your aeronautical weather chart ! - Copyright ORBIFLY December 2007 - Disclaimer

ORBIFLY MET'MAP TEAM :

Programming & Development : Alexandra Zaïnal
Concept & original design : Baudouin d'Aumeries
Assistance for programming : Marc-Olivier Méhu
Technical & hardware support : Manuel Goepfert

Contact : metmap@orbifly.com




SOURCES & CREDITS :

   NOAA